Time;durP1;ratioP1;P1;durP2;ratioP2;P2;SDS_P1;SDS_P2;PMS_P1;PMS_P2;Temp;Humidity;BMP_temperature;BMP_pressure;BME280_temperature;BME280_humidity;BME280_pressure;Samples;Min_cycle;Max_cycle;Signal;HPM_P1;HPM_P2
2021/12/10 00:00:35;;;;;;;6.53;1.55;;;;;;;-3.49;100.00;91668.00;2115636;28;20023;-87
2021/12/10 00:01:55;;;;;;;4.28;1.65;;;;;;;-3.49;100.00;91670.59;2107186;28;20020;-88
2021/12/10 00:02:57;;;;;;;6.00;2.15;;;;;;;-3.49;100.00;91662.75;2104030;28;20111;-87
2021/12/10 00:04:02;;;;;;;7.47;1.45;;;;;;;-3.55;100.00;91662.38;2107166;28;20030;-89
2021/12/10 00:05:08;;;;;;;7.88;1.42;;;;;;;-3.49;100.00;91662.03;2099199;28;20016;-87
2021/12/10 00:06:17;;;;;;;4.72;1.23;;;;;;;-3.60;100.00;91660.09;2091980;28;20028;-88
2021/12/10 00:07:23;;;;;;;4.43;1.30;;;;;;;-3.70;100.00;91662.63;2101081;28;20035;-87
2021/12/10 00:08:28;;;;;;;3.42;1.30;;;;;;;-3.66;100.00;91656.31;2107712;28;20464;-88
2021/12/10 00:09:40;;;;;;;1.88;1.20;;;;;;;-3.70;100.00;91655.53;2107641;28;20492;-87
2021/12/10 00:10:45;;;;;;;7.38;1.65;;;;;;;-3.76;100.00;91651.78;2108635;28;20032;-87
2021/12/10 00:11:54;;;;;;;5.85;1.80;;;;;;;-3.69;100.00;91648.44;2099272;28;20020;-87
2021/12/10 00:12:55;;;;;;;5.43;1.63;;;;;;;-3.63;100.00;91649.63;2092592;28;20104;-87
2021/12/10 00:13:56;;;;;;;6.22;1.65;;;;;;;-3.64;100.00;91645.53;2106896;28;20742;-87
2021/12/10 00:15:02;;;;;;;2.35;1.40;;;;;;;-3.64;100.00;91646.25;2106969;28;20030;-87
2021/12/10 00:16:05;;;;;;;4.05;1.60;;;;;;;-3.72;100.00;91641.34;2091132;28;20116;-88
2021/12/10 00:17:09;;;;;;;6.07;1.83;;;;;;;-3.71;100.00;91637.63;2082442;28;20467;-88
2021/12/10 00:18:16;;;;;;;4.28;1.10;;;;;;;-3.85;100.00;91636.41;2091210;28;20017;-88
2021/12/10 00:19:37;;;;;;;7.45;1.63;;;;;;;-3.74;100.00;91638.34;2099463;28;20076;-87
2021/12/10 00:20:40;;;;;;;5.00;1.70;;;;;;;-3.78;100.00;91632.34;2093201;28;20044;-88
2021/12/10 00:21:42;;;;;;;5.20;1.25;;;;;;;-3.67;100.00;91628.72;2099205;28;20028;-87
2021/12/10 00:22:55;;;;;;;6.78;1.90;;;;;;;-3.64;100.00;91627.25;2098424;28;20051;-88
2021/12/10 00:23:57;;;;;;;6.25;1.92;;;;;;;-3.61;100.00;91619.41;2093768;28;20032;-87
2021/12/10 00:24:58;;;;;;;5.63;1.73;;;;;;;-3.60;100.00;91618.31;2106900;28;20159;-88
2021/12/10 00:26:02;;;;;;;6.40;1.65;;;;;;;-3.60;100.00;91614.94;2098602;28;20017;-88
2021/12/10 00:27:06;;;;;;;6.55;1.92;;;;;;;-3.70;100.00;91605.19;2092747;28;20017;-89
2021/12/10 00:28:23;;;;;;;5.53;1.70;;;;;;;-3.92;100.00;91612.13;2090982;28;20029;-88
2021/12/10 00:29:25;;;;;;;8.73;1.60;;;;;;;-3.83;100.00;91605.47;2094542;28;20058;-88
2021/12/10 00:30:39;;;;;;;5.05;1.60;;;;;;;-3.83;100.00;91597.63;2096056;28;20020;-88
2021/12/10 00:31:49;;;;;;;6.70;1.73;;;;;;;-3.88;100.00;91597.97;2091479;28;20427;-88
2021/12/10 00:33:09;;;;;;;3.20;1.58;;;;;;;-3.89;100.00;91593.13;2084267;28;20044;-89
2021/12/10 00:34:22;;;;;;;4.57;1.67;;;;;;;-3.85;100.00;91589.44;2087391;28;20079;-90
2021/12/10 00:35:27;;;;;;;4.22;1.30;;;;;;;-3.88;100.00;91592.00;2086223;28;20076;-89
2021/12/10 00:36:33;;;;;;;3.83;1.48;;;;;;;-3.99;100.00;91588.59;2099100;28;20036;-89
2021/12/10 00:37:34;;;;;;;3.25;1.50;;;;;;;-4.04;100.00;91597.47;2107497;28;20020;-88
2021/12/10 00:38:36;;;;;;;2.97;1.30;;;;;;;-4.07;100.00;91587.78;2098474;28;20024;-88
2021/12/10 00:39:41;;;;;;;5.13;1.60;;;;;;;-4.06;100.00;91578.84;2091995;28;20512;-88
2021/12/10 00:40:43;;;;;;;5.07;1.77;;;;;;;-4.02;100.00;91579.63;2090541;28;20107;-87
2021/12/10 00:41:45;;;;;;;5.05;1.80;;;;;;;-3.99;100.00;91580.78;2090641;28;20079;-89
2021/12/10 00:42:57;;;;;;;7.45;1.63;;;;;;;-4.02;100.00;91579.63;2103746;28;20016;-87
2021/12/10 00:43:59;;;;;;;3.35;1.48;;;;;;;-4.07;100.00;91577.34;2108417;28;20119;-87
2021/12/10 00:45:02;;;;;;;6.57;1.98;;;;;;;-4.16;100.00;91576.91;2105900;28;20020;-89
2021/12/10 00:46:04;;;;;;;7.13;2.30;;;;;;;-4.13;100.00;91576.19;2097256;28;20047;-88
2021/12/10 00:47:06;;;;;;;6.95;1.50;;;;;;;-4.06;100.00;91576.97;2085058;28;20035;-89
2021/12/10 00:48:07;;;;;;;4.68;1.50;;;;;;;-4.01;100.00;91575.16;2093633;28;20120;-88
2021/12/10 00:49:09;;;;;;;4.32;1.48;;;;;;;-4.06;100.00;91576.22;2101652;28;20401;-88
2021/12/10 00:50:14;;;;;;;3.70;1.63;;;;;;;-3.90;100.00;91565.53;2113374;28;20739;-87
2021/12/10 00:51:16;;;;;;;6.68;1.33;;;;;;;-4.00;100.00;91555.75;2110185;28;20024;-89
2021/12/10 00:52:23;;;;;;;4.65;1.77;;;;;;;-4.09;100.00;91561.28;2089866;28;20045;-88
2021/12/10 00:53:35;;;;;;;8.20;1.95;;;;;;;-4.01;100.00;91554.28;2090866;28;20055;-88
2021/12/10 00:54:38;;;;;;;5.43;1.65;;;;;;;-3.98;100.00;91553.56;2093105;28;20493;-88
2021/12/10 00:55:44;;;;;;;4.30;1.30;;;;;;;-3.97;100.00;91553.19;2098384;28;20056;-89
2021/12/10 00:56:46;;;;;;;5.50;1.67;;;;;;;-4.10;100.00;91555.34;2090800;28;20028;-89
2021/12/10 00:57:50;;;;;;;3.88;1.67;;;;;;;-4.17;100.00;91555.31;2091248;28;20504;-87
2021/12/10 00:58:51;;;;;;;6.55;1.67;;;;;;;-4.20;100.00;91553.41;2106824;28;20020;-88
2021/12/10 00:59:53;;;;;;;3.88;1.63;;;;;;;-4.13;100.00;91550.84;2098448;28;20027;-88
2021/12/10 01:00:58;;;;;;;4.95;2.20;;;;;;;-4.19;100.00;91554.91;2098070;28;20081;-88
2021/12/10 01:01:59;;;;;;;8.52;2.15;;;;;;;-4.05;100.00;91534.13;2107306;28;20016;-89
2021/12/10 01:03:03;;;;;;;8.05;1.70;;;;;;;-4.23;100.00;91532.50;2096154;28;20378;-88
2021/12/10 01:04:26;;;;;;;6.47;1.80;;;;;;;-4.33;100.00;91533.94;2094710;28;20027;-89
2021/12/10 01:05:28;;;;;;;9.07;2.08;;;;;;;-4.20;100.00;91527.31;2092842;28;20021;-88
2021/12/10 01:06:29;;;;;;;6.20;1.80;;;;;;;-4.19;100.00;91521.00;2084683;28;20073;-90
2021/12/10 01:07:34;;;;;;;4.80;1.92;;;;;;;-3.96;100.00;91518.16;2089943;28;20056;-87
2021/12/10 01:08:39;;;;;;;6.07;2.40;;;;;;;-3.76;100.00;91508.19;2097018;28;20020;-87
2021/12/10 01:09:43;;;;;;;6.25;2.10;;;;;;;-3.94;100.00;91507.34;2106113;28;20610;-88
2021/12/10 01:10:59;;;;;;;5.75;2.22;;;;;;;-3.56;100.00;91495.59;2090617;28;20451;-87
2021/12/10 01:12:09;;;;;;;4.30;1.92;;;;;;;-3.60;100.00;91492.22;2086975;28;20494;-88
2021/12/10 01:13:15;;;;;;;5.80;1.83;;;;;;;-3.77;100.00;91492.91;2089154;28;21062;-87
2021/12/10 01:14:37;;;;;;;9.30;2.58;;;;;;;-3.80;100.00;91492.50;2086785;28;20526;-88
2021/12/10 01:16:14;;;;;;;4.15;1.80;;;;;;;-3.75;100.00;91494.03;2095683;28;20040;-89
2021/12/10 01:25:40;;;;;;;8.13;2.70;;;;;;;-3.64;100.00;91460.16;2106441;28;20457;-86
2021/12/10 01:27:50;;;;;;;3.70;2.80;;;;;;;-3.56;100.00;91462.41;2107236;28;20446;-85
2021/12/10 01:28:59;;;;;;;7.63;3.35;;;;;;;-3.52;100.00;91466.88;2098262;28;20476;-86
2021/12/10 01:30:23;;;;;;;4.18;2.90;;;;;;;-3.52;100.00;91462.41;2083674;28;20547;-86
2021/12/10 01:31:24;;;;;;;7.35;2.92;;;;;;;-3.46;100.00;91455.72;2096266;28;20450;-85
2021/12/10 01:32:30;;;;;;;5.72;3.28;;;;;;;-3.58;100.00;91450.84;2095132;28;20536;-86
2021/12/10 01:33:32;;;;;;;9.95;3.60;;;;;;;-3.33;100.00;91453.53;2090549;28;20816;-86
2021/12/10 01:34:35;;;;;;;8.15;3.25;;;;;;;-3.53;100.00;91441.91;2098587;28;20435;-86
2021/12/10 01:35:41;;;;;;;5.30;3.28;;;;;;;-3.55;100.00;91443.03;2106488;28;20477;-87
2021/12/10 01:36:42;;;;;;;5.20;2.95;;;;;;;-3.53;100.00;91449.72;2098570;28;20529;-86
2021/12/10 01:37:43;;;;;;;7.65;2.78;;;;;;;-3.43;100.00;91449.75;2097933;28;20537;-85
2021/12/10 01:38:46;;;;;;;8.50;3.22;;;;;;;-3.43;100.00;91444.53;2098070;28;20443;-86
2021/12/10 01:39:48;;;;;;;6.03;3.28;;;;;;;-3.45;100.00;91438.19;2097943;28;20481;-86
2021/12/10 01:40:56;;;;;;;6.55;3.92;;;;;;;-3.44;100.00;91442.28;2089836;28;20451;-86
2021/12/10 01:42:12;;;;;;;4.65;3.25;;;;;;;-3.34;100.00;91426.63;2098780;28;20453;-86
2021/12/10 01:43:22;;;;;;;5.13;3.22;;;;;;;-3.36;100.00;91425.53;2099886;28;20739;-86
2021/12/10 01:44:29;;;;;;;10.38;3.47;;;;;;;-3.41;100.00;91416.19;2097834;28;20554;-87
2021/12/10 01:45:33;;;;;;;7.82;3.88;;;;;;;-3.38;100.00;91419.91;2083212;28;20038;-87
2021/12/10 01:46:42;;;;;;;3.97;3.00;;;;;;;-3.18;100.00;91417.72;2082543;28;20444;-86
2021/12/10 01:47:55;;;;;;;7.18;3.67;;;;;;;-3.30;100.00;91416.19;2091688;28;20447;-86
2021/12/10 01:49:00;;;;;;;6.57;3.50;;;;;;;-3.29;100.00;91417.72;2091080;28;20451;-86
2021/12/10 01:50:05;;;;;;;8.23;3.78;;;;;;;-3.17;100.00;91414.72;2082720;28;20444;-86
2021/12/10 01:51:08;;;;;;;7.80;4.25;;;;;;;-3.43;100.00;91412.44;2094030;28;21009;-86
2021/12/10 01:52:15;;;;;;;8.15;3.50;;;;;;;-3.41;100.00;91412.84;2098073;28;20466;-84
2021/12/10 01:53:24;;;;;;;10.35;4.05;;;;;;;-3.39;100.00;91407.97;2091428;28;21044;-84
2021/12/10 01:54:35;;;;;;;9.63;3.65;;;;;;;-3.22;100.00;91406.53;2102970;28;20454;-87
2021/12/10 01:55:40;;;;;;;8.10;4.05;;;;;;;-3.36;100.00;91400.16;2094057;28;20843;-87
2021/12/10 01:56:41;;;;;;;9.65;3.78;;;;;;;-3.23;100.00;91397.19;2098919;28;20545;-85
2021/12/10 01:57:42;;;;;;;6.10;3.60;;;;;;;-3.21;100.00;91393.06;2106112;28;20469;-85
2021/12/10 01:58:44;;;;;;;5.80;3.90;;;;;;;-3.15;100.00;91389.00;2106156;28;21000;-85
2021/12/10 01:59:46;;;;;;;9.90;4.22;;;;;;;-3.26;100.00;91390.09;2097864;28;20575;-84
2021/12/10 02:00:53;;;;;;;8.88;4.22;;;;;;;-3.35;100.00;91374.78;2106464;28;20519;-86
2021/12/10 02:02:05;;;;;;;9.60;5.22;;;;;;;-3.32;100.00;91369.56;2114541;28;20443;-86
2021/12/10 02:03:07;;;;;;;8.02;4.40;;;;;;;-3.18;100.00;91375.91;2106200;28;20947;-85
2021/12/10 02:04:11;;;;;;;11.07;4.53;;;;;;;-3.25;100.00;91362.84;2097742;28;20534;-84
2021/12/10 02:05:17;;;;;;;9.77;4.25;;;;;;;-3.24;100.00;91367.72;2102104;28;20450;-86
2021/12/10 02:06:20;;;;;;;10.82;4.70;;;;;;;-3.13;100.00;91360.59;2098486;28;20803;-85
2021/12/10 02:09:20;;;;;;;;;;;;;;;-3.05;100.00;91369.22;2146994;27;20125;-86
2021/12/10 02:10:24;;;;;;;11.75;5.40;;;;;;;-3.25;100.00;91371.41;2120727;28;19986;-87
2021/12/10 02:11:25;;;;;;;7.47;4.63;;;;;;;-3.26;100.00;91359.47;2104798;28;20028;-85
2021/12/10 02:12:26;;;;;;;8.38;4.47;;;;;;;-3.08;100.00;91359.50;2111948;28;20552;-87
2021/12/10 02:13:27;;;;;;;8.25;5.00;;;;;;;-3.18;100.00;91362.84;2103910;28;20481;-85
2021/12/10 02:14:34;;;;;;;9.07;5.05;;;;;;;-3.19;100.00;91353.53;2104730;28;20454;-86
2021/12/10 02:15:36;;;;;;;7.75;5.18;;;;;;;-2.96;100.00;91348.66;2106068;28;20461;-86
2021/12/10 02:16:39;;;;;;;11.52;5.57;;;;;;;-3.08;100.00;91351.66;2113643;27;20484;-85
2021/12/10 02:17:48;;;;;;;11.70;5.38;;;;;;;-3.06;100.00;91341.59;2113255;28;20446;-86
2021/12/10 02:18:49;;;;;;;9.45;5.10;;;;;;;-3.01;100.00;91341.22;2114273;28;20445;-85
2021/12/10 02:19:50;;;;;;;11.90;5.72;;;;;;;-3.03;100.00;91340.81;2112973;28;20433;-85
2021/12/10 02:21:00;;;;;;;6.93;5.28;;;;;;;-3.17;100.00;91341.56;2106071;28;20468;-86
2021/12/10 02:22:03;;;;;;;8.15;4.93;;;;;;;-3.19;100.00;91343.81;2115341;27;20166;-84
2021/12/10 02:23:06;;;;;;;8.85;5.80;;;;;;;-3.08;100.00;91341.19;2113397;28;20054;-87
2021/12/10 02:24:10;;;;;;;10.05;5.43;;;;;;;-3.10;100.00;91344.19;2105133;28;20438;-86
2021/12/10 02:25:13;;;;;;;10.90;5.82;;;;;;;-2.89;100.00;91345.31;2096900;28;20479;-87
2021/12/10 02:26:15;;;;;;;8.27;5.50;;;;;;;-2.93;100.00;91347.19;2105308;28;20476;-86
2021/12/10 02:27:16;;;;;;;10.52;5.85;;;;;;;-3.01;100.00;91348.31;2104679;28;20434;-86
2021/12/10 02:28:18;;;;;;;8.52;5.72;;;;;;;-3.14;100.00;91340.09;2104671;28;20454;-85
2021/12/10 02:29:22;;;;;;;8.48;5.25;;;;;;;-3.11;100.00;91339.34;2109390;28;20027;-86
2021/12/10 02:30:26;;;;;;;7.82;5.10;;;;;;;-3.08;100.00;91335.97;2105141;27;20447;-86
2021/12/10 02:31:27;;;;;;;7.07;4.53;;;;;;;-3.15;100.00;91331.50;2113055;28;20445;-86
2021/12/10 02:32:28;;;;;;;9.73;5.28;;;;;;;-3.10;100.00;91325.91;2103847;28;20465;-88
2021/12/10 02:33:30;;;;;;;7.72;5.30;;;;;;;-2.98;100.00;91332.63;2112346;28;20042;-88
2021/12/10 02:34:30;;;;;;;5.38;4.32;;;;;;;-3.07;100.00;91325.16;2104365;28;20021;-86
2021/12/10 02:35:32;;;;;;;6.57;4.75;;;;;;;-2.95;100.00;91323.28;2112907;28;20461;-86
2021/12/10 02:36:33;;;;;;;6.55;4.22;;;;;;;-2.94;100.00;91317.69;2113029;28;20099;-86
2021/12/10 02:37:34;;;;;;;9.85;5.20;;;;;;;-2.88;100.00;91315.44;2104524;28;20449;-85
2021/12/10 02:38:38;;;;;;;11.27;4.82;;;;;;;-2.97;100.00;91309.84;2104726;28;20063;-87
2021/12/10 02:39:41;;;;;;;7.03;4.60;;;;;;;-2.80;100.00;91309.06;2105173;28;21042;-86
2021/12/10 02:40:48;;;;;;;6.97;4.45;;;;;;;-2.85;100.00;91306.84;2105220;28;20454;-88
2021/12/10 02:41:57;;;;;;;10.32;4.47;;;;;;;-2.91;100.00;91305.72;2114696;27;20024;-86
2021/12/10 02:43:10;;;;;;;7.28;4.90;;;;;;;-2.91;100.00;91296.00;2122259;27;20453;-86
2021/12/10 02:44:25;;;;;;;9.23;4.55;;;;;;;-2.92;100.00;91293.78;2114251;28;20445;-86
2021/12/10 02:45:29;;;;;;;7.68;4.32;;;;;;;-2.96;100.00;91293.03;2123152;27;20111;-86
2021/12/10 02:46:36;;;;;;;11.90;4.32;;;;;;;-3.08;100.00;91281.84;2112365;28;20020;-87
2021/12/10 02:47:38;;;;;;;7.13;4.43;;;;;;;-3.09;100.00;91288.19;2106251;28;20453;-88
2021/12/10 02:48:53;;;;;;;7.45;4.13;;;;;;;-3.08;100.00;91281.09;2104625;28;20025;-88
2021/12/10 02:49:54;;;;;;;7.47;4.90;;;;;;;-3.22;100.00;91278.50;2114407;27;20023;-86
2021/12/10 02:51:00;;;;;;;6.88;4.47;;;;;;;-3.16;100.00;91267.31;2113045;28;20031;-87
2021/12/10 02:52:10;;;;;;;8.07;4.53;;;;;;;-3.12;100.00;91265.41;2114219;27;20019;-86
2021/12/10 02:53:24;;;;;;;9.07;5.00;;;;;;;-2.99;100.00;91259.81;2116639;28;20023;-87
2021/12/10 02:54:37;;;;;;;5.60;4.43;;;;;;;-3.13;100.00;91253.47;2106420;28;20563;-86
2021/12/10 02:55:38;;;;;;;8.48;4.20;;;;;;;-3.07;100.00;91248.63;2099825;28;20566;-86
2021/12/10 02:56:39;;;;;;;7.43;4.15;;;;;;;-3.15;100.00;91240.06;2096137;28;20443;-87
2021/12/10 02:57:42;;;;;;;9.50;5.13;;;;;;;-3.05;100.00;91234.06;2104443;28;20024;-87
2021/12/10 02:58:47;;;;;;;6.85;4.97;;;;;;;-3.09;100.00;91238.53;2104940;28;20020;-87
2021/12/10 02:59:50;;;;;;;6.07;4.90;;;;;;;-3.02;100.00;91227.34;2097460;28;20505;-88
2021/12/10 03:01:03;;;;;;;7.88;5.00;;;;;;;-2.99;100.00;91231.06;2105332;28;20069;-86
2021/12/10 03:02:14;;;;;;;7.50;5.28;;;;;;;-3.08;100.00;91223.63;2114409;28;20047;-87
2021/12/10 03:03:23;;;;;;;5.75;4.80;;;;;;;-2.99;100.00;91213.50;2105979;28;20032;-87
2021/12/10 03:04:26;;;;;;;8.35;5.35;;;;;;;-2.84;100.00;91212.34;2114222;28;20047;-87
2021/12/10 03:05:28;;;;;;;9.35;5.57;;;;;;;-2.88;100.00;91210.88;2113079;28;20016;-87
2021/12/10 03:06:32;;;;;;;7.22;5.20;;;;;;;-3.07;100.00;91210.19;2104502;28;20063;-86
2021/12/10 03:07:39;;;;;;;7.72;5.63;;;;;;;-3.02;100.00;91209.06;2105047;28;20474;-87
2021/12/10 03:08:43;;;;;;;6.78;5.53;;;;;;;-3.05;100.00;91215.78;2105296;28;20378;-86
2021/12/10 03:09:53;;;;;;;11.82;5.93;;;;;;;-3.05;100.00;91207.19;2105526;28;20446;-86
2021/12/10 03:11:18;;;;;;;8.20;5.85;;;;;;;-3.20;100.00;91203.13;2105905;28;20016;-87
2021/12/10 03:12:20;;;;;;;7.35;5.50;;;;;;;-3.19;100.00;91207.22;2107639;28;20038;-88
2021/12/10 03:13:21;;;;;;;10.30;6.07;;;;;;;-3.27;100.00;91218.81;2104801;28;20795;-86
2021/12/10 03:14:27;;;;;;;11.00;5.75;;;;;;;-3.10;100.00;91205.72;2096164;28;20075;-87
2021/12/10 03:15:29;;;;;;;7.30;5.60;;;;;;;-3.02;100.00;91213.53;2103287;28;20032;-85
2021/12/10 03:16:31;;;;;;;11.15;6.25;;;;;;;-2.91;100.00;91212.38;2112928;28;20020;-87
2021/12/10 03:17:33;;;;;;;8.10;6.10;;;;;;;-2.86;100.00;91221.69;2104205;28;20430;-86
2021/12/10 03:18:42;;;;;;;10.95;5.90;;;;;;;-2.86;100.00;91225.03;2107045;28;20020;-88
2021/12/10 03:19:44;;;;;;;6.32;4.38;;;;;;;-2.85;100.00;91220.59;2105488;28;20438;-88
2021/12/10 03:20:48;;;;;;;8.70;5.05;;;;;;;-2.72;100.00;91219.06;2099034;28;20431;-88
2021/12/10 03:21:51;;;;;;;6.57;4.72;;;;;;;-2.79;100.00;91219.06;2099436;28;20024;-87
2021/12/10 03:23:05;;;;;;;7.70;5.43;;;;;;;-3.09;100.00;91212.41;2099520;28;20020;-87
2021/12/10 03:24:14;;;;;;;8.18;4.78;;;;;;;-2.92;100.00;91210.88;2108934;28;20027;-87
2021/12/10 03:25:22;;;;;;;7.00;5.40;;;;;;;-2.71;100.00;91209.34;2115503;28;20035;-86
2021/12/10 03:26:27;;;;;;;7.55;5.32;;;;;;;-2.84;100.00;91206.38;2108339;28;20036;-87
2021/12/10 03:27:35;;;;;;;8.65;4.80;;;;;;;-2.84;100.00;91203.78;2107604;28;20989;-87
2021/12/10 03:28:45;;;;;;;7.47;5.20;;;;;;;-2.74;100.00;91192.53;2099461;28;20044;-86
2021/12/10 03:30:00;;;;;;;8.60;5.57;;;;;;;-2.80;100.00;91202.63;2101563;28;20762;-86
2021/12/10 03:31:12;;;;;;;10.55;5.70;;;;;;;-2.94;100.00;91197.47;2100713;28;20499;-86
2021/12/10 03:32:18;;;;;;;9.25;5.57;;;;;;;-2.89;100.00;91191.84;2108549;28;20069;-88
2021/12/10 03:33:19;;;;;;;7.70;5.68;;;;;;;-2.95;100.00;91189.97;2107970;28;20113;-86
2021/12/10 03:34:21;;;;;;;9.43;5.65;;;;;;;-2.88;100.00;91198.56;2106916;28;20523;-86
2021/12/10 03:35:30;;;;;;;7.75;5.57;;;;;;;-2.89;100.00;91198.94;2098960;28;21028;-87
2021/12/10 03:36:32;;;;;;;8.52;5.80;;;;;;;-2.83;100.00;91192.19;2099971;28;20165;-87
2021/12/10 03:37:33;;;;;;;8.40;5.28;;;;;;;-2.94;100.00;91194.06;2098871;28;20165;-85
2021/12/10 03:38:35;;;;;;;6.80;4.93;;;;;;;-2.84;100.00;91191.44;2107195;28;20561;-87
2021/12/10 03:39:37;;;;;;;8.57;5.50;;;;;;;-2.96;100.00;91186.63;2106807;28;20106;-86
2021/12/10 03:40:42;;;;;;;5.63;4.97;;;;;;;-2.95;100.00;91190.72;2090200;28;20132;-88
2021/12/10 03:41:47;;;;;;;8.32;5.18;;;;;;;-2.98;100.00;91195.97;2099787;28;20024;-86
2021/12/10 03:42:58;;;;;;;6.47;4.55;;;;;;;-2.95;100.00;91195.22;2107206;28;20031;-87
2021/12/10 03:44:01;;;;;;;7.65;5.97;;;;;;;-2.67;100.00;91184.66;2099825;28;20036;-87
2021/12/10 03:45:12;;;;;;;5.60;4.80;;;;;;;-2.72;100.00;91181.69;2099325;28;20021;-86
2021/12/10 03:46:16;;;;;;;;;;;;;;;-2.82;100.00;91185.81;2100616;28;20421;-86
2021/12/10 03:47:17;;;;;;;6.18;4.55;;;;;;;-2.74;100.00;91181.31;2090740;28;19955;-86
2021/12/10 03:48:29;;;;;;;7.70;4.80;;;;;;;-2.70;100.00;91174.97;2098817;28;20451;-86
2021/12/10 03:49:33;;;;;;;5.88;4.20;;;;;;;-2.78;100.00;91174.22;2108225;28;20056;-87
2021/12/10 03:50:35;;;;;;;6.35;5.10;;;;;;;-2.71;100.00;91173.47;2107517;28;20024;-85
2021/12/10 03:51:50;;;;;;;6.75;4.65;;;;;;;-2.81;100.00;91169.78;2104095;28;20052;-87
2021/12/10 03:52:51;;;;;;;7.20;4.43;;;;;;;-2.85;100.00;91158.59;2092005;28;20040;-86
2021/12/10 03:53:52;;;;;;;7.78;5.10;;;;;;;-2.82;100.00;91151.84;2090675;28;20588;-86
2021/12/10 03:54:54;;;;;;;9.05;4.72;;;;;;;-2.77;100.00;91148.84;2098354;28;20031;-85
2021/12/10 03:56:05;;;;;;;5.60;4.85;;;;;;;-2.81;100.00;91154.09;2103926;28;20012;-87
2021/12/10 03:57:07;;;;;;;6.53;4.78;;;;;;;-2.73;100.00;91154.06;2100854;28;20452;-87
2021/12/10 03:58:08;;;;;;;4.70;3.88;;;;;;;-2.80;100.00;91149.63;2098673;28;20031;-88
2021/12/10 03:59:12;;;;;;;7.78;5.05;;;;;;;-2.90;100.00;91142.53;2098719;28;20016;-87
2021/12/10 04:00:15;;;;;;;7.15;4.88;;;;;;;-2.91;100.00;91148.91;2114736;28;20076;-87
2021/12/10 04:01:19;;;;;;;7.38;5.00;;;;;;;-3.03;100.00;91142.22;2107136;28;20058;-86
2021/12/10 04:02:20;;;;;;;5.90;4.70;;;;;;;-3.00;100.00;91131.00;2098799;28;20052;-87
2021/12/10 04:03:25;;;;;;;10.85;4.95;;;;;;;-2.96;100.00;91129.13;2098389;28;20072;-86
2021/12/10 04:04:30;;;;;;;6.38;4.78;;;;;;;-2.82;100.00;91129.06;2090817;28;20984;-86
2021/12/10 04:05:31;;;;;;;6.88;4.93;;;;;;;-2.84;100.00;91127.97;2082952;28;20072;-87
2021/12/10 04:06:33;;;;;;;9.07;5.20;;;;;;;-2.96;100.00;91128.38;2082234;28;20025;-87
2021/12/10 04:07:37;;;;;;;6.40;5.03;;;;;;;-2.78;100.00;91115.97;2090574;28;20033;-87
2021/12/10 04:08:38;;;;;;;7.60;4.90;;;;;;;-2.74;100.00;91121.94;2098760;28;20443;-85
2021/12/10 04:09:40;;;;;;;6.80;4.32;;;;;;;-2.82;100.00;91123.09;2098600;28;20024;-89
2021/12/10 04:10:42;;;;;;;8.13;5.22;;;;;;;-2.91;100.00;91118.28;2090050;28;20031;-85
2021/12/10 04:11:43;;;;;;;7.38;5.28;;;;;;;-3.02;100.00;91111.63;2098943;28;20028;-87
2021/12/10 04:13:08;;;;;;;11.68;5.32;;;;;;;-3.04;100.00;91114.59;2106560;28;20020;-85
2021/12/10 04:14:10;;;;;;;6.78;4.78;;;;;;;-3.01;100.00;91118.34;2101827;28;20495;-88
2021/12/10 04:15:12;;;;;;;5.53;4.45;;;;;;;-3.10;100.00;91110.91;2090176;28;20124;-87
2021/12/10 04:16:17;;;;;;;7.93;4.72;;;;;;;-2.97;100.00;91113.84;2093596;28;20092;-88
2021/12/10 04:17:22;;;;;;;5.22;4.72;;;;;;;-3.02;100.00;91111.63;2098635;28;20034;-87
2021/12/10 04:18:23;;;;;;;5.43;4.93;;;;;;;-3.04;100.00;91109.38;2107760;28;20103;-87
2021/12/10 04:19:28;;;;;;;5.43;4.85;;;;;;;-2.94;100.00;91110.44;2106739;28;20711;-89
2021/12/10 04:20:31;;;;;;;6.85;4.63;;;;;;;-2.99;100.00;91110.84;2099611;28;20021;-85
2021/12/10 04:21:39;;;;;;;6.97;4.90;;;;;;;-2.91;100.00;91110.44;2098164;28;20071;-87
2021/12/10 04:22:42;;;;;;;5.72;4.45;;;;;;;-2.92;100.00;91106.34;2106673;28;20106;-88
2021/12/10 04:23:44;;;;;;;6.03;5.03;;;;;;;-2.94;100.00;91105.22;2098449;28;20439;-86
2021/12/10 04:24:44;;;;;;;10.35;4.68;;;;;;;-2.99;100.00;91103.75;2090420;28;20025;-87
2021/12/10 04:25:46;;;;;;;9.13;5.90;;;;;;;-2.94;100.00;91108.59;2090020;28;20447;-87
2021/12/10 04:26:48;;;;;;;8.70;5.15;;;;;;;-2.96;100.00;91108.22;2098304;28;20052;-87
2021/12/10 04:27:49;;;;;;;8.75;5.90;;;;;;;-3.01;100.00;91100.78;2098298;28;20025;-86
2021/12/10 04:28:52;;;;;;;6.25;5.47;;;;;;;-3.10;100.00;91100.44;2090014;28;20013;-88
2021/12/10 04:29:57;;;;;;;8.45;5.53;;;;;;;-3.13;100.00;91099.31;2090640;28;21028;-87
2021/12/10 04:31:02;;;;;;;8.57;5.20;;;;;;;-3.15;100.00;91093.00;2099265;28;20066;-86
2021/12/10 04:32:05;;;;;;;7.95;5.95;;;;;;;-3.24;100.00;91093.41;2097719;28;20020;-87
2021/12/10 04:33:08;;;;;;;9.75;6.57;;;;;;;-3.26;100.00;91093.03;2090509;28;20131;-85
2021/12/10 04:34:26;;;;;;;9.98;6.38;;;;;;;-3.10;100.00;91092.63;2090663;28;20107;-87
2021/12/10 04:35:27;;;;;;;8.88;5.28;;;;;;;-2.94;100.00;91090.31;2102883;28;20505;-89
2021/12/10 04:36:29;;;;;;;9.70;6.07;;;;;;;-3.08;100.00;91091.09;2098210;28;20025;-87
2021/12/10 04:37:30;;;;;;;7.38;5.95;;;;;;;-3.10;100.00;91090.75;2106320;28;20026;-88
2021/12/10 04:38:33;;;;;;;6.55;5.90;;;;;;;-3.15;100.00;91096.38;2098193;28;20053;-85
2021/12/10 04:39:38;;;;;;;7.63;5.78;;;;;;;-3.04;100.00;91104.16;2106880;28;20431;-87
2021/12/10 04:40:39;;;;;;;8.95;5.55;;;;;;;-3.12;100.00;91095.59;2106472;28;20441;-86
2021/12/10 04:41:40;;;;;;;7.05;5.82;;;;;;;-3.25;100.00;91099.00;2106488;28;20441;-87
2021/12/10 04:42:40;;;;;;;7.68;5.50;;;;;;;-3.25;100.00;91099.00;2114456;28;20066;-86
2021/12/10 04:43:44;;;;;;;9.70;6.70;;;;;;;-3.28;100.00;91094.56;2106588;28;20840;-87
2021/12/10 04:44:46;;;;;;;8.18;6.18;;;;;;;-3.27;100.00;91094.16;2098510;28;20042;-86
2021/12/10 04:45:48;;;;;;;9.13;5.75;;;;;;;-2.98;100.00;91091.44;2098469;28;20074;-87
2021/12/10 04:46:49;;;;;;;6.47;5.20;;;;;;;-3.08;100.00;91090.34;2098507;28;20028;-86
2021/12/10 04:47:50;;;;;;;10.00;6.07;;;;;;;-3.02;100.00;91088.84;2097726;28;21009;-86
2021/12/10 04:48:58;;;;;;;10.60;6.20;;;;;;;-3.05;100.00;91092.22;2098025;28;20044;-88
2021/12/10 04:50:00;;;;;;;7.47;5.25;;;;;;;-2.99;100.00;91082.84;2100157;28;20442;-88
2021/12/10 04:51:02;;;;;;;7.53;5.05;;;;;;;-3.04;100.00;91081.38;2101229;28;20028;-87
2021/12/10 04:52:04;;;;;;;9.23;5.55;;;;;;;-3.11;100.00;91084.03;2106183;28;20031;-87
2021/12/10 04:53:08;;;;;;;7.88;5.35;;;;;;;-2.99;100.00;91080.22;2097891;28;20083;-87
2021/12/10 04:54:10;;;;;;;9.23;5.90;;;;;;;-3.10;100.00;91075.06;2106144;28;20114;-88
2021/12/10 04:55:14;;;;;;;10.85;6.05;;;;;;;-3.10;100.00;91069.84;2105589;28;20024;-87
2021/12/10 04:56:15;;;;;;;9.73;7.72;;;;;;;-3.08;100.00;91069.44;2097612;28;20568;-88
2021/12/10 04:57:16;;;;;;;9.18;7.85;;;;;;;-3.07;100.00;91070.97;2097623;28;20024;-87
2021/12/10 04:58:17;;;;;;;10.00;7.78;;;;;;;-3.07;100.00;91063.84;2097829;28;20520;-87
2021/12/10 04:59:20;;;;;;;9.77;6.88;;;;;;;-3.09;100.00;91066.09;2090145;28;20107;-88
2021/12/10 05:00:29;;;;;;;10.68;6.57;;;;;;;-3.16;100.00;91068.00;2106725;28;20496;-87
2021/12/10 05:01:30;;;;;;;6.57;5.68;;;;;;;-3.13;100.00;91062.00;2107450;28;20119;-87
2021/12/10 05:02:34;;;;;;;9.10;5.35;;;;;;;-3.02;100.00;91060.09;2106208;28;20055;-86
2021/12/10 05:03:35;;;;;;;8.15;6.13;;;;;;;-3.11;100.00;91065.00;2106550;28;20028;-88
2021/12/10 05:04:37;;;;;;;7.78;5.47;;;;;;;-3.11;100.00;91050.06;2098047;28;20020;-86
2021/12/10 05:05:41;;;;;;;8.65;6.22;;;;;;;-3.17;100.00;91058.66;2098404;28;20051;-86
2021/12/10 05:06:42;;;;;;;6.40;5.50;;;;;;;-3.26;100.00;91053.13;2098358;28;20021;-87
2021/12/10 05:07:43;;;;;;;7.00;5.95;;;;;;;-3.19;100.00;91053.84;2089797;28;20031;-87
2021/12/10 05:08:44;;;;;;;10.52;6.60;;;;;;;-3.07;100.00;91050.78;2097650;28;20044;-87
2021/12/10 05:09:45;;;;;;;8.70;6.30;;;;;;;-3.09;100.00;91052.28;2097905;28;20024;-87
2021/12/10 05:10:46;;;;;;;12.38;6.50;;;;;;;-3.09;100.00;91057.50;2097950;28;20017;-86
2021/12/10 05:11:49;;;;;;;9.48;7.63;;;;;;;-3.00;100.00;91051.88;2106351;28;20019;-86
2021/12/10 05:12:53;;;;;;;13.40;7.40;;;;;;;-3.05;100.00;91056.38;2097900;28;20020;-87
2021/12/10 05:13:54;;;;;;;9.05;7.85;;;;;;;-2.94;100.00;91052.94;2106477;28;20117;-86